createdAt,value
2018-11-05T00:00:16.799Z,91.80
2018-11-05T00:02:45.989Z,91.80
2018-11-05T00:05:15.093Z,92.10
2018-11-05T00:07:44.023Z,92.10
2018-11-05T00:10:13.339Z,92.10
2018-11-05T00:12:42.301Z,92.20
2018-11-05T00:15:11.263Z,92.30
2018-11-05T00:17:40.269Z,92.70
2018-11-05T00:20:10.133Z,92.20
2018-11-05T00:22:39.197Z,92.50
2018-11-05T00:25:10.332Z,92.30
2018-11-05T00:27:39.590Z,92.40
2018-11-05T00:30:10.076Z,92.50
2018-11-05T00:32:39.033Z,92.70
2018-11-05T00:35:08.598Z,92.70
2018-11-05T00:37:37.543Z,92.70
2018-11-05T00:40:09.600Z,92.70
2018-11-05T00:42:38.531Z,92.70
2018-11-05T00:45:08.506Z,92.60
2018-11-05T00:47:37.549Z,92.50
2018-11-05T00:50:09.356Z,92.70
2018-11-05T00:52:38.309Z,92.80
2018-11-05T00:55:07.815Z,92.80
2018-11-05T00:57:36.880Z,92.70
2018-11-05T01:00:08.786Z,92.80
2018-11-05T01:02:37.962Z,92.90
2018-11-05T01:05:08.300Z,92.90
2018-11-05T01:07:37.292Z,93.10
2018-11-05T01:10:07.214Z,93.20
2018-11-05T01:12:36.587Z,93.20
2018-11-05T01:15:07.630Z,93.30
2018-11-05T01:17:36.638Z,93.30
2018-11-05T01:20:06.486Z,93.40
2018-11-05T01:22:35.992Z,93.50
2018-11-05T01:25:05.035Z,93.50
2018-11-05T01:27:33.977Z,93.30
2018-11-05T01:30:03.251Z,93.40
2018-11-05T01:32:32.309Z,93.40
2018-11-05T01:35:01.269Z,93.30
2018-11-05T01:37:30.254Z,93.40
2018-11-05T01:39:59.206Z,93.50
2018-11-05T01:42:28.138Z,93.60
2018-11-05T01:44:57.148Z,93.60
2018-11-05T01:47:26.072Z,93.60
2018-11-05T01:49:55.003Z,93.60
2018-11-05T01:52:24.018Z,93.70
2018-11-05T01:54:52.985Z,93.60
2018-11-05T01:57:22.027Z,93.60
2018-11-05T01:59:51.146Z,93.70
2018-11-05T02:02:20.059Z,93.80
2018-11-05T02:04:49.065Z,93.90
2018-11-05T02:07:17.996Z,93.90
2018-11-05T02:09:46.877Z,93.90
2018-11-05T02:12:15.804Z,93.90
2018-11-05T02:14:44.692Z,93.80
2018-11-05T02:17:13.851Z,93.80
2018-11-05T02:19:43.645Z,94.00
2018-11-05T02:22:12.867Z,93.90
2018-11-05T02:24:41.819Z,94.00
2018-11-05T02:27:10.896Z,94.20
2018-11-05T02:29:39.912Z,94.00
2018-11-05T02:32:08.879Z,94.00
2018-11-05T02:34:37.901Z,94.00
2018-11-05T02:37:06.891Z,94.10
2018-11-05T02:39:35.824Z,94.20
2018-11-05T02:42:05.255Z,94.20
2018-11-05T02:44:34.181Z,94.30
2018-11-05T02:47:03.209Z,94.30
2018-11-05T02:49:32.177Z,94.50
2018-11-05T02:52:01.136Z,94.50
2018-11-05T02:54:30.453Z,94.10
2018-11-05T02:56:59.471Z,94.30
2018-11-05T02:59:28.426Z,94.30
2018-11-05T03:01:57.433Z,94.30
2018-11-05T03:04:26.399Z,94.20
2018-11-05T03:06:55.360Z,94.40
2018-11-05T03:09:24.272Z,94.40
2018-11-05T03:11:53.306Z,94.40
2018-11-05T03:14:22.242Z,94.50
2018-11-05T03:16:51.191Z,94.40
2018-11-05T03:19:20.118Z,94.40
2018-11-05T03:21:49.086Z,94.40
2018-11-05T03:24:18.038Z,94.40
2018-11-05T03:26:47.082Z,94.40
2018-11-05T03:29:16.026Z,94.40
2018-11-05T03:31:44.959Z,94.40
2018-11-05T03:34:13.886Z,94.40
2018-11-05T03:36:42.807Z,94.20
2018-11-05T03:39:12.435Z,94.30
2018-11-05T03:41:41.465Z,94.40
2018-11-05T03:44:10.739Z,94.40
2018-11-05T03:46:40.450Z,94.40
2018-11-05T03:49:10.265Z,94.40
2018-11-05T03:51:39.267Z,94.50
2018-11-05T03:54:08.645Z,94.50
2018-11-05T03:56:37.801Z,94.40
2018-11-05T03:59:06.823Z,94.50
2018-11-05T04:01:35.833Z,94.50
2018-11-05T04:04:04.971Z,94.60
2018-11-05T04:06:34.050Z,94.60
2018-11-05T04:09:04.967Z,94.70
2018-11-05T04:11:34.069Z,94.60
2018-11-05T04:14:03.164Z,94.70
2018-11-05T04:16:32.137Z,94.60
2018-11-05T04:19:01.153Z,94.70
2018-11-05T04:21:45.095Z,94.70
2018-11-05T04:24:15.086Z,94.50
2018-11-05T04:26:45.116Z,94.50
2018-11-05T04:29:14.283Z,94.60
2018-11-05T04:31:43.273Z,94.80
2018-11-05T04:34:12.253Z,94.80
2018-11-05T04:36:41.306Z,94.80
2018-11-05T04:39:14.654Z,95.00
2018-11-05T04:41:44.314Z,95.00
2018-11-05T04:44:13.367Z,95.00
2018-11-05T04:46:42.333Z,94.80
2018-11-05T04:49:11.290Z,94.90
2018-11-05T04:51:40.576Z,94.90
2018-11-05T04:54:09.554Z,94.90
2018-11-05T04:56:38.542Z,94.80
2018-11-05T04:59:07.679Z,94.90
2018-11-05T05:01:37.033Z,95.00
2018-11-05T05:04:06.320Z,94.90
2018-11-05T05:06:35.256Z,94.90
2018-11-05T05:09:06.286Z,95.00
2018-11-05T05:11:35.202Z,95.00
2018-11-05T05:14:04.167Z,95.00
2018-11-05T05:16:33.223Z,95.00
2018-11-05T05:19:02.322Z,95.00
2018-11-05T05:21:31.286Z,95.00
2018-11-05T05:24:00.538Z,95.10
2018-11-05T05:26:29.515Z,95.30
2018-11-05T05:28:58.564Z,95.10
2018-11-05T05:31:27.558Z,95.00
2018-11-05T05:33:56.520Z,95.00
2018-11-05T05:36:25.657Z,95.10
2018-11-05T05:38:54.608Z,95.10
2018-11-05T05:41:23.665Z,95.10
2018-11-05T05:43:52.855Z,95.00
2018-11-05T05:46:21.854Z,95.10
2018-11-05T05:48:50.802Z,95.10
2018-11-05T05:51:19.792Z,95.10
2018-11-05T05:53:48.770Z,95.00
2018-11-05T05:56:18.068Z,95.20
2018-11-05T05:58:47.021Z,95.20
2018-11-05T06:01:16.226Z,95.00
2018-11-05T06:03:45.631Z,95.10
2018-11-05T06:06:14.877Z,95.00
2018-11-05T06:08:43.883Z,95.10
2018-11-05T06:11:12.839Z,95.10
2018-11-05T06:13:41.766Z,95.00
2018-11-05T06:16:10.707Z,95.10
2018-11-05T06:18:39.626Z,95.10
2018-11-05T06:21:08.582Z,94.90
2018-11-05T06:23:37.550Z,94.60
2018-11-05T06:26:06.748Z,94.70
2018-11-05T06:28:35.765Z,94.80
2018-11-05T06:31:05.681Z,94.90
2018-11-05T06:33:34.676Z,95.00
2018-11-05T06:36:03.982Z,95.00
2018-11-05T06:38:32.891Z,95.00
2018-11-05T06:41:03.794Z,94.90
2018-11-05T06:43:32.892Z,95.00
2018-11-05T06:46:01.889Z,95.10
2018-11-05T06:48:30.817Z,95.10
2018-11-05T06:50:59.915Z,95.10
2018-11-05T06:53:29.076Z,95.10
2018-11-05T06:55:58.040Z,95.20
2018-11-05T06:58:27.028Z,95.10
2018-11-05T07:00:55.995Z,95.10
2018-11-05T07:03:24.889Z,95.10
2018-11-05T07:05:54.034Z,95.20
2018-11-05T07:08:23.061Z,95.20
2018-11-05T07:10:52.018Z,95.50
2018-11-05T07:13:20.954Z,94.80
2018-11-05T07:15:49.885Z,94.80
2018-11-05T07:18:18.842Z,95.00
2018-11-05T07:20:48.003Z,94.80
2018-11-05T07:23:16.947Z,94.60
2018-11-05T07:25:46.087Z,94.60
2018-11-05T07:28:15.044Z,94.40
2018-11-05T07:30:44.076Z,94.30
2018-11-05T07:33:13.090Z,94.50
2018-11-05T07:35:42.239Z,94.70
2018-11-05T07:38:11.373Z,94.50
2018-11-05T07:40:40.299Z,94.50
2018-11-05T07:43:09.227Z,94.60
2018-11-05T07:45:38.653Z,94.50
2018-11-05T07:48:07.631Z,94.60
2018-11-05T07:50:36.584Z,94.50
2018-11-05T07:53:06.035Z,94.30
2018-11-05T07:55:34.990Z,94.00
2018-11-05T07:58:03.993Z,94.20
2018-11-05T08:00:38.342Z,94.30
2018-11-05T08:03:07.273Z,94.00
2018-11-05T08:05:36.217Z,93.80
2018-11-05T08:08:05.917Z,93.80
2018-11-05T08:10:35.036Z,94.00
2018-11-05T08:13:04.439Z,93.80
2018-11-05T08:15:33.379Z,93.90
2018-11-05T08:18:07.335Z,94.00
2018-11-05T08:20:36.371Z,93.70
2018-11-05T08:23:05.479Z,93.50
2018-11-05T08:25:34.515Z,93.50
2018-11-05T08:28:03.701Z,93.40
2018-11-05T08:30:33.025Z,93.40
2018-11-05T08:33:01.983Z,93.50
2018-11-05T08:35:31.205Z,93.30
2018-11-05T08:38:00.192Z,92.70
2018-11-05T08:40:29.635Z,93.10
2018-11-05T08:42:58.657Z,93.20
2018-11-05T08:45:29.547Z,93.00
2018-11-05T08:47:58.583Z,92.80
2018-11-05T08:50:27.596Z,92.70
2018-11-05T08:52:56.701Z,92.80
2018-11-05T08:55:26.685Z,92.80
2018-11-05T08:57:55.627Z,92.70
2018-11-05T09:00:30.151Z,92.30
2018-11-05T09:02:59.413Z,92.20
2018-11-05T09:05:28.365Z,92.40
2018-11-05T09:07:57.531Z,92.40
2018-11-05T09:10:26.820Z,92.20
2018-11-05T09:12:55.814Z,92.00
2018-11-05T09:15:25.089Z,91.70
2018-11-05T09:17:54.198Z,91.90
2018-11-05T09:20:23.148Z,92.00
2018-11-05T09:22:52.642Z,91.90
2018-11-05T09:25:21.594Z,91.80
2018-11-05T09:27:50.638Z,91.60
2018-11-05T09:30:21.085Z,91.80
2018-11-05T09:32:50.387Z,91.60
2018-11-05T09:35:19.470Z,91.50
2018-11-05T09:37:48.404Z,91.30
2018-11-05T09:40:19.577Z,91.30
2018-11-05T09:42:48.901Z,90.90
2018-11-05T09:45:33.258Z,90.80
2018-11-05T09:48:02.559Z,90.70
2018-11-05T09:50:31.691Z,90.10
2018-11-05T09:53:00.803Z,90.10
2018-11-05T09:55:29.916Z,90.10
2018-11-05T09:57:58.865Z,89.70
2018-11-05T10:00:28.357Z,89.20
2018-11-05T10:03:06.650Z,89.50
2018-11-05T10:05:35.544Z,88.40
2018-11-05T10:08:04.993Z,88.50
2018-11-05T10:10:33.935Z,88.40
2018-11-05T10:13:02.857Z,89.50
2018-11-05T10:15:31.789Z,90.10
2018-11-05T10:18:00.846Z,90.20
2018-11-05T10:20:29.790Z,90.10
2018-11-05T10:22:58.716Z,90.30
2018-11-05T10:25:27.653Z,90.90
2018-11-05T10:28:01.987Z,90.60
2018-11-05T10:30:31.055Z,90.50
2018-11-05T10:33:00.226Z,90.60
2018-11-05T10:35:34.785Z,90.70
2018-11-05T10:38:04.105Z,90.60
2018-11-05T10:40:33.125Z,90.50
2018-11-05T10:43:02.235Z,90.50
2018-11-05T10:45:31.156Z,90.50
2018-11-05T10:48:00.253Z,90.80
2018-11-05T10:50:29.473Z,90.20
2018-11-05T10:52:58.455Z,90.10
2018-11-05T10:55:27.879Z,90.40
2018-11-05T10:57:56.858Z,89.30
2018-11-05T11:00:31.259Z,89.10
2018-11-05T11:03:05.569Z,88.50
2018-11-05T11:05:34.688Z,88.50
2018-11-05T11:08:03.684Z,88.10
2018-11-05T11:10:33.363Z,88.20
2018-11-05T11:13:02.358Z,88.50
2018-11-05T11:15:31.350Z,88.40
2018-11-05T11:18:00.437Z,88.10
2018-11-05T11:20:29.671Z,87.10
2018-11-05T11:22:58.697Z,87.40
2018-11-05T11:25:27.656Z,86.90
2018-11-05T11:27:56.650Z,86.40
2018-11-05T11:30:25.802Z,86.60
2018-11-05T11:32:54.745Z,86.50
2018-11-05T11:35:23.725Z,86.30
2018-11-05T11:37:52.754Z,86.40
2018-11-05T11:40:23.446Z,86.00
2018-11-05T11:42:52.566Z,85.60
2018-11-05T11:45:22.677Z,85.00
2018-11-05T11:47:51.688Z,84.90
2018-11-05T11:50:21.153Z,85.10
2018-11-05T11:52:50.568Z,85.00
2018-11-05T11:55:21.257Z,85.30
2018-11-05T11:57:50.835Z,84.90
2018-11-05T12:00:22.059Z,84.60
2018-11-05T12:02:51.496Z,84.80
2018-11-05T12:05:20.999Z,84.50
2018-11-05T12:07:50.064Z,84.00
2018-11-05T12:10:23.974Z,83.10
2018-11-05T12:12:52.926Z,82.60
2018-11-05T12:15:22.560Z,82.50
2018-11-05T12:17:52.860Z,81.70
2018-11-05T12:20:23.976Z,81.50
2018-11-05T12:22:54.006Z,81.70
2018-11-05T12:25:23.127Z,81.80
2018-11-05T12:27:52.060Z,81.20
2018-11-05T12:30:23.089Z,81.30
2018-11-05T12:32:53.191Z,80.80
2018-11-05T12:35:22.487Z,80.60
2018-11-05T12:37:52.391Z,79.70
2018-11-05T12:40:22.667Z,80.30
2018-11-05T12:42:52.140Z,79.80
2018-11-05T12:45:21.519Z,80.40
2018-11-05T12:47:50.433Z,80.20
2018-11-05T12:50:20.765Z,79.90
2018-11-05T12:52:50.911Z,80.00
2018-11-05T12:55:19.873Z,80.10
2018-11-05T12:57:49.601Z,80.00
2018-11-05T13:00:24.417Z,79.90
2018-11-05T13:02:54.529Z,79.90
2018-11-05T13:05:24.657Z,79.70
2018-11-05T13:07:54.055Z,79.50
2018-11-05T13:10:23.196Z,78.40
2018-11-05T13:12:52.237Z,77.30
2018-11-05T13:15:21.445Z,77.20
2018-11-05T13:17:50.582Z,77.00
2018-11-05T13:20:21.623Z,76.80
2018-11-05T13:22:50.756Z,77.80
2018-11-05T13:25:19.859Z,78.20
2018-11-05T13:27:49.809Z,77.90
2018-11-05T13:30:18.966Z,77.70
2018-11-05T13:32:47.957Z,77.20
2018-11-05T13:35:18.166Z,77.40
2018-11-05T13:37:47.564Z,76.40
2018-11-05T13:40:17.769Z,77.00
2018-11-05T13:42:47.248Z,77.10
2018-11-05T13:45:16.960Z,77.50
2018-11-05T13:47:47.158Z,77.50
2018-11-05T13:50:16.466Z,77.70
2018-11-05T13:52:45.363Z,78.00
2018-11-05T13:55:15.444Z,78.30
2018-11-05T13:57:45.633Z,78.10
2018-11-05T14:00:15.967Z,78.30
2018-11-05T14:02:45.017Z,78.40
2018-11-05T14:05:14.632Z,78.90
2018-11-05T14:07:43.606Z,78.80
2018-11-05T14:10:15.622Z,79.00
2018-11-05T14:12:45.395Z,79.10
2018-11-05T14:15:14.456Z,79.30
2018-11-05T14:17:43.922Z,79.60
2018-11-05T14:20:14.195Z,79.90
2018-11-05T14:22:43.618Z,80.10
2018-11-05T14:25:18.583Z,80.50
2018-11-05T14:27:49.593Z,80.50
2018-11-05T14:30:18.536Z,80.50
2018-11-05T14:32:48.481Z,80.60
2018-11-05T14:35:17.758Z,80.70
2018-11-05T14:37:47.183Z,80.80
2018-11-05T14:40:17.381Z,81.60
2018-11-05T14:42:46.577Z,81.00
2018-11-05T14:45:17.843Z,81.00
2018-11-05T14:47:47.098Z,80.90
2018-11-05T14:50:18.141Z,80.60
2018-11-05T14:52:47.107Z,80.60
2018-11-05T14:55:17.324Z,80.60
2018-11-05T14:57:47.598Z,80.50
2018-11-05T15:00:20.642Z,80.30
2018-11-05T15:02:50.426Z,80.10
2018-11-05T15:05:19.777Z,80.20
2018-11-05T15:07:49.623Z,80.00
2018-11-05T15:10:20.089Z,79.80
2018-11-05T15:12:49.296Z,80.10
2018-11-05T15:15:18.812Z,80.30
2018-11-05T15:17:48.160Z,81.20
2018-11-05T15:20:22.344Z,80.60
2018-11-05T15:22:51.452Z,81.00
2018-11-05T15:25:21.111Z,81.10
2018-11-05T15:27:50.612Z,81.80
2018-11-05T15:30:21.298Z,81.30
2018-11-05T15:32:50.351Z,81.60
2018-11-05T15:35:19.509Z,81.80
2018-11-05T15:37:48.880Z,81.60
2018-11-05T15:40:19.506Z,81.00
2018-11-05T15:42:48.575Z,81.90
2018-11-05T15:45:18.790Z,82.00
2018-11-05T15:47:48.502Z,82.10
2018-11-05T15:50:18.600Z,82.10
2018-11-05T15:52:48.246Z,82.20
2018-11-05T15:55:16.953Z,82.40
2018-11-05T15:57:45.894Z,82.60
2018-11-05T16:00:17.405Z,82.90
2018-11-05T16:02:49.261Z,83.00
2018-11-05T16:05:18.420Z,83.10
2018-11-05T16:07:47.700Z,83.20
2018-11-05T16:10:17.033Z,83.20
2018-11-05T16:12:46.162Z,83.20
2018-11-05T16:15:15.151Z,83.20
2018-11-05T16:17:44.395Z,83.40
2018-11-05T16:20:17.283Z,83.40
2018-11-05T16:22:46.897Z,83.40
2018-11-05T16:25:16.151Z,83.50
2018-11-05T16:27:45.290Z,83.50
2018-11-05T16:30:15.820Z,83.40
2018-11-05T16:32:45.206Z,83.50
2018-11-05T16:35:14.205Z,83.50
2018-11-05T16:37:43.495Z,83.50
2018-11-05T16:40:14.932Z,83.50
2018-11-05T16:42:44.678Z,83.60
2018-11-05T16:45:14.018Z,83.90
2018-11-05T16:47:43.327Z,83.90
2018-11-05T16:50:28.647Z,83.90
2018-11-05T16:52:57.965Z,84.10
2018-11-05T16:55:26.893Z,84.30
2018-11-05T16:57:55.967Z,84.40
2018-11-05T17:00:25.090Z,84.40
2018-11-05T17:02:54.137Z,84.40
2018-11-05T17:05:23.374Z,84.50
2018-11-05T17:07:52.505Z,84.50
2018-11-05T17:10:21.469Z,84.80
2018-11-05T17:12:50.441Z,84.90
2018-11-05T17:15:19.458Z,85.00
2018-11-05T17:17:48.439Z,85.00
2018-11-05T17:20:18.731Z,85.20
2018-11-05T17:22:47.886Z,85.10
2018-11-05T17:25:17.151Z,85.30
2018-11-05T17:27:47.042Z,85.40
2018-11-05T17:30:18.368Z,85.60
2018-11-05T17:32:47.420Z,85.70
2018-11-05T17:35:16.647Z,85.60
2018-11-05T17:37:46.146Z,85.60
2018-11-05T17:40:16.566Z,85.50
2018-11-05T17:42:45.661Z,85.50
2018-11-05T17:45:16.226Z,85.50
2018-11-05T17:47:45.280Z,85.50
2018-11-05T17:50:18.883Z,85.50
2018-11-05T17:52:47.879Z,85.50
2018-11-05T17:55:17.194Z,85.50
2018-11-05T17:57:47.400Z,85.60
2018-11-05T18:00:17.957Z,85.50
2018-11-05T18:02:47.264Z,85.40
2018-11-05T18:05:16.344Z,85.40
2018-11-05T18:07:45.566Z,85.30
2018-11-05T18:10:14.538Z,85.40
2018-11-05T18:12:43.523Z,85.40
2018-11-05T18:15:12.956Z,85.40
2018-11-05T18:17:42.646Z,85.50
2018-11-05T18:20:13.073Z,85.50
2018-11-05T18:22:42.151Z,85.60
2018-11-05T18:25:13.011Z,85.70
2018-11-05T18:27:42.349Z,85.80
2018-11-05T18:30:12.521Z,86.10
2018-11-05T18:32:41.575Z,86.20
2018-11-05T18:35:11.948Z,86.30
2018-11-05T18:37:41.425Z,86.40
2018-11-05T18:40:12.824Z,86.60
2018-11-05T18:42:42.682Z,86.70
2018-11-05T18:45:12.666Z,86.90
2018-11-05T18:47:42.486Z,86.90
2018-11-05T18:50:13.184Z,86.90
2018-11-05T18:52:43.051Z,86.90
2018-11-05T18:55:13.878Z,86.90
2018-11-05T18:57:43.063Z,87.00
2018-11-05T19:00:16.905Z,87.40
2018-11-05T19:02:46.407Z,87.40
2018-11-05T19:05:15.948Z,87.50
2018-11-05T19:07:45.019Z,87.50
2018-11-05T19:10:14.447Z,87.50
2018-11-05T19:12:43.427Z,87.70
2018-11-05T19:15:13.940Z,87.80
2018-11-05T19:17:44.633Z,87.90
2018-11-05T19:20:14.011Z,88.00
2018-11-05T19:22:43.956Z,88.10
2018-11-05T19:25:14.105Z,88.20
2018-11-05T19:27:43.513Z,88.30
2018-11-05T19:30:15.005Z,88.10
2018-11-05T19:32:44.517Z,88.70
2018-11-05T19:35:13.582Z,88.80
2018-11-05T19:37:43.236Z,88.80
2018-11-05T19:40:13.223Z,89.00
2018-11-05T19:42:43.262Z,89.10
2018-11-05T19:45:14.090Z,89.10
2018-11-05T19:47:43.421Z,89.30
2018-11-05T19:50:15.032Z,89.30
2018-11-05T19:52:44.902Z,89.40
2018-11-05T19:55:14.868Z,89.60
2018-11-05T19:57:44.761Z,89.80
2018-11-05T20:00:20.850Z,89.80
2018-11-05T20:02:50.674Z,90.00
2018-11-05T20:05:20.104Z,90.00
2018-11-05T20:07:50.772Z,90.10
2018-11-05T20:10:20.282Z,90.10
2018-11-05T20:12:49.741Z,90.10
2018-11-05T20:15:19.091Z,90.10
2018-11-05T20:17:49.664Z,90.10
2018-11-05T20:20:20.065Z,90.20
2018-11-05T20:22:49.022Z,90.30
2018-11-05T20:25:18.524Z,90.30
2018-11-05T20:27:47.686Z,90.30
2018-11-05T20:30:18.993Z,90.30
2018-11-05T20:32:49.220Z,90.70
2018-11-05T20:35:18.265Z,90.30
2018-11-05T20:37:47.507Z,90.40
2018-11-05T20:40:18.427Z,90.40
2018-11-05T20:42:49.251Z,90.50
2018-11-05T20:45:18.898Z,90.50
2018-11-05T20:47:47.971Z,90.60
2018-11-05T20:50:17.546Z,90.60
2018-11-05T20:52:46.521Z,90.70
2018-11-05T20:55:16.499Z,90.70
2018-11-05T20:57:45.610Z,90.70
2018-11-05T21:00:16.244Z,90.70
2018-11-05T21:02:45.157Z,90.70
2018-11-05T21:05:14.126Z,90.70
2018-11-05T21:07:43.645Z,90.80
2018-11-05T21:10:13.535Z,90.80
2018-11-05T21:12:43.055Z,90.80
2018-11-05T21:15:16.558Z,90.80
2018-11-05T21:17:46.811Z,90.90
2018-11-05T21:20:16.362Z,90.90
2018-11-05T21:22:45.853Z,91.00
2018-11-05T21:25:14.836Z,91.10
2018-11-05T21:27:44.234Z,91.10
2018-11-05T21:30:16.332Z,91.20
2018-11-05T21:32:45.360Z,91.20
2018-11-05T21:35:16.058Z,91.20
2018-11-05T21:37:44.994Z,91.30
2018-11-05T21:40:15.386Z,91.30
2018-11-05T21:42:44.378Z,91.30
2018-11-05T21:45:14.274Z,91.40
2018-11-05T21:47:44.233Z,91.50
2018-11-05T21:50:14.946Z,91.60
2018-11-05T21:52:44.742Z,91.60
2018-11-05T21:55:14.989Z,91.70
2018-11-05T21:57:45.318Z,91.70
2018-11-05T22:00:17.006Z,91.70
2018-11-05T22:02:51.226Z,91.50
2018-11-05T22:05:20.522Z,91.70
2018-11-05T22:07:49.767Z,92.00
2018-11-05T22:10:18.762Z,91.90
2018-11-05T22:12:48.357Z,91.90
2018-11-05T22:15:17.468Z,91.90
2018-11-05T22:17:46.442Z,91.90
2018-11-05T22:20:15.397Z,91.90
2018-11-05T22:22:44.591Z,92.00
2018-11-05T22:25:13.686Z,92.10
2018-11-05T22:27:42.735Z,92.10
2018-11-05T22:30:12.643Z,92.10
2018-11-05T22:32:41.593Z,92.20
2018-11-05T22:35:10.523Z,92.10
2018-11-05T22:37:39.472Z,92.10
2018-11-05T22:40:10.867Z,92.20
2018-11-05T22:42:39.812Z,92.10
2018-11-05T22:45:10.388Z,92.20
2018-11-05T22:47:39.459Z,92.30
2018-11-05T22:50:09.015Z,92.30
2018-11-05T22:52:39.270Z,92.30
2018-11-05T22:55:08.492Z,92.30
2018-11-05T22:57:37.843Z,92.30
2018-11-05T23:00:14.745Z,92.30
2018-11-05T23:02:49.086Z,92.40
2018-11-05T23:05:19.188Z,92.40
2018-11-05T23:07:48.427Z,92.40
2018-11-05T23:10:17.421Z,92.50
2018-11-05T23:12:46.411Z,92.40
2018-11-05T23:15:15.372Z,92.50
2018-11-05T23:17:44.490Z,92.50
2018-11-05T23:20:13.475Z,92.50
2018-11-05T23:22:43.077Z,92.50
2018-11-05T23:25:13.315Z,92.50
2018-11-05T23:27:42.425Z,92.50
2018-11-05T23:30:13.037Z,92.50
2018-11-05T23:32:42.164Z,92.50
2018-11-05T23:35:11.841Z,92.50
2018-11-05T23:37:41.472Z,92.60
2018-11-05T23:40:10.442Z,92.60
2018-11-05T23:42:40.055Z,92.70
2018-11-05T23:45:11.808Z,92.70
2018-11-05T23:47:40.830Z,92.70
2018-11-05T23:50:10.323Z,92.70
2018-11-05T23:52:39.346Z,92.70
2018-11-05T23:55:09.322Z,92.70
2018-11-05T23:57:38.433Z,92.80
